sensor_id;sensor_type;location;lat;lon;timestamp;temperature;humidity
25328;DHT22;13279;51.300;12.394;2023-02-28T00:00:25;1.10;99.90
25328;DHT22;13279;51.300;12.394;2023-02-28T00:02:54;1.10;99.90
25328;DHT22;13279;51.300;12.394;2023-02-28T00:05:24;1.10;99.90
25328;DHT22;13279;51.300;12.394;2023-02-28T00:07:52;1.10;99.90
25328;DHT22;13279;51.300;12.394;2023-02-28T00:10:24;1.10;99.90
25328;DHT22;13279;51.300;12.394;2023-02-28T00:12:54;1.10;99.90
25328;DHT22;13279;51.300;12.394;2023-02-28T00:15:23;1.10;99.90
25328;DHT22;13279;51.300;12.394;2023-02-28T00:17:51;1.10;99.90
25328;DHT22;13279;51.300;12.394;2023-02-28T00:20:20;1.10;99.90
25328;DHT22;13279;51.300;12.394;2023-02-28T00:22:50;1.10;99.90
25328;DHT22;13279;51.300;12.394;2023-02-28T00:25:19;1.10;99.90
25328;DHT22;13279;51.300;12.394;2023-02-28T00:27:48;1.00;99.90
25328;DHT22;13279;51.300;12.394;2023-02-28T00:30:17;1.10;99.90
25328;DHT22;13279;51.300;12.394;2023-02-28T00:32:45;1.10;99.90
25328;DHT22;13279;51.300;12.394;2023-02-28T00:35:13;1.00;99.90
25328;DHT22;13279;51.300;12.394;2023-02-28T00:37:43;1.00;99.90
25328;DHT22;13279;51.300;12.394;2023-02-28T00:40:11;1.00;99.90
25328;DHT22;13279;51.300;12.394;2023-02-28T00:42:39;1.00;99.90
25328;DHT22;13279;51.300;12.394;2023-02-28T00:45:07;1.00;99.90
25328;DHT22;13279;51.300;12.394;2023-02-28T00:47:37;1.00;99.90
25328;DHT22;13279;51.300;12.394;2023-02-28T00:50:06;1.00;99.90
25328;DHT22;13279;51.300;12.394;2023-02-28T00:52:36;1.00;99.90
25328;DHT22;13279;51.300;12.394;2023-02-28T00:55:05;1.00;99.90
25328;DHT22;13279;51.300;12.394;2023-02-28T00:57:33;1.00;99.90
25328;DHT22;13279;51.300;12.394;2023-02-28T01:00:01;1.00;99.90
25328;DHT22;13279;51.300;12.394;2023-02-28T01:02:29;1.00;99.90
25328;DHT22;13279;51.300;12.394;2023-02-28T01:04:57;1.00;99.90
25328;DHT22;13279;51.300;12.394;2023-02-28T01:07:24;1.00;99.90
25328;DHT22;13279;51.300;12.394;2023-02-28T01:09:52;1.00;99.90
25328;DHT22;13279;51.300;12.394;2023-02-28T01:12:21;1.00;99.90
25328;DHT22;13279;51.300;12.394;2023-02-28T01:14:49;0.90;99.90
25328;DHT22;13279;51.300;12.394;2023-02-28T01:17:16;0.90;99.90
25328;DHT22;13279;51.300;12.394;2023-02-28T01:19:44;0.90;99.90
25328;DHT22;13279;51.300;12.394;2023-02-28T01:22:11;0.90;99.90
25328;DHT22;13279;51.300;12.394;2023-02-28T01:24:41;0.90;99.90
25328;DHT22;13279;51.300;12.394;2023-02-28T01:27:12;0.90;99.90
25328;DHT22;13279;51.300;12.394;2023-02-28T01:29:40;0.90;99.90
25328;DHT22;13279;51.300;12.394;2023-02-28T01:32:09;0.90;99.90
25328;DHT22;13279;51.300;12.394;2023-02-28T01:34:36;0.90;99.90
25328;DHT22;13279;51.300;12.394;2023-02-28T01:37:04;0.90;99.90
25328;DHT22;13279;51.300;12.394;2023-02-28T01:39:31;1.00;99.90
25328;DHT22;13279;51.300;12.394;2023-02-28T01:41:58;0.90;99.90
25328;DHT22;13279;51.300;12.394;2023-02-28T01:47:31;0.90;99.90
25328;DHT22;13279;51.300;12.394;2023-02-28T01:50:01;0.90;99.90
25328;DHT22;13279;51.300;12.394;2023-02-28T01:52:30;0.90;99.90
25328;DHT22;13279;51.300;12.394;2023-02-28T01:55:00;0.90;99.90
25328;DHT22;13279;51.300;12.394;2023-02-28T01:57:32;0.90;99.90
25328;DHT22;13279;51.300;12.394;2023-02-28T02:00:07;0.90;99.90
25328;DHT22;13279;51.300;12.394;2023-02-28T02:02:50;0.90;99.90
25328;DHT22;13279;51.300;12.394;2023-02-28T02:05:19;0.90;99.90
25328;DHT22;13279;51.300;12.394;2023-02-28T02:07:49;0.90;99.90
25328;DHT22;13279;51.300;12.394;2023-02-28T02:10:20;0.80;99.90
25328;DHT22;13279;51.300;12.394;2023-02-28T02:13:08;0.80;99.90
25328;DHT22;13279;51.300;12.394;2023-02-28T02:15:42;0.80;99.90
25328;DHT22;13279;51.300;12.394;2023-02-28T02:18:19;0.80;99.90
25328;DHT22;13279;51.300;12.394;2023-02-28T02:21:35;0.80;99.90
25328;DHT22;13279;51.300;12.394;2023-02-28T02:24:48;0.80;99.90
25328;DHT22;13279;51.300;12.394;2023-02-28T02:36:24;0.80;99.90
25328;DHT22;13279;51.300;12.394;2023-02-28T02:38:57;0.80;99.90
25328;DHT22;13279;51.300;12.394;2023-02-28T02:41:34;0.80;99.90
25328;DHT22;13279;51.300;12.394;2023-02-28T02:44:10;0.90;99.90
25328;DHT22;13279;51.300;12.394;2023-02-28T02:46:42;0.90;99.90
25328;DHT22;13279;51.300;12.394;2023-02-28T02:49:15;0.90;99.90
25328;DHT22;13279;51.300;12.394;2023-02-28T02:51:46;0.80;99.90
25328;DHT22;13279;51.300;12.394;2023-02-28T02:54:17;0.80;99.90
25328;DHT22;13279;51.300;12.394;2023-02-28T02:56:49;0.80;99.90
25328;DHT22;13279;51.300;12.394;2023-02-28T02:59:20;0.70;99.90
25328;DHT22;13279;51.300;12.394;2023-02-28T03:01:52;0.60;99.90
25328;DHT22;13279;51.300;12.394;2023-02-28T03:04:23;0.60;99.90
25328;DHT22;13279;51.300;12.394;2023-02-28T03:06:52;0.60;99.90
25328;DHT22;13279;51.300;12.394;2023-02-28T03:09:21;0.60;99.90
25328;DHT22;13279;51.300;12.394;2023-02-28T03:11:49;0.60;99.90
25328;DHT22;13279;51.300;12.394;2023-02-28T03:14:35;0.60;99.90
25328;DHT22;13279;51.300;12.394;2023-02-28T03:17:49;0.60;99.90
25328;DHT22;13279;51.300;12.394;2023-02-28T03:20:32;0.60;99.90
25328;DHT22;13279;51.300;12.394;2023-02-28T03:23:10;0.60;99.90
25328;DHT22;13279;51.300;12.394;2023-02-28T03:25:49;0.60;99.90
25328;DHT22;13279;51.300;12.394;2023-02-28T03:28:31;0.60;99.90
25328;DHT22;13279;51.300;12.394;2023-02-28T03:31:02;0.60;99.90
25328;DHT22;13279;51.300;12.394;2023-02-28T03:33:33;0.60;99.90
25328;DHT22;13279;51.300;12.394;2023-02-28T03:36:06;0.60;99.90
25328;DHT22;13279;51.300;12.394;2023-02-28T03:38:40;0.60;99.90
25328;DHT22;13279;51.300;12.394;2023-02-28T03:41:14;0.70;99.90
25328;DHT22;13279;51.300;12.394;2023-02-28T03:43:46;0.70;99.90
25328;DHT22;13279;51.300;12.394;2023-02-28T03:46:19;0.70;99.90
25328;DHT22;13279;51.300;12.394;2023-02-28T03:48:53;0.70;99.90
25328;DHT22;13279;51.300;12.394;2023-02-28T03:51:24;0.70;99.90
25328;DHT22;13279;51.300;12.394;2023-02-28T03:53:57;0.70;99.90
25328;DHT22;13279;51.300;12.394;2023-02-28T03:56:31;0.70;99.90
25328;DHT22;13279;51.300;12.394;2023-02-28T03:59:02;0.60;99.90
25328;DHT22;13279;51.300;12.394;2023-02-28T04:01:35;0.70;99.90
25328;DHT22;13279;51.300;12.394;2023-02-28T04:04:04;0.70;99.90
25328;DHT22;13279;51.300;12.394;2023-02-28T04:06:33;0.70;99.90
25328;DHT22;13279;51.300;12.394;2023-02-28T04:09:04;0.70;99.90
25328;DHT22;13279;51.300;12.394;2023-02-28T04:11:34;0.60;99.90
25328;DHT22;13279;51.300;12.394;2023-02-28T04:14:02;0.60;99.90
25328;DHT22;13279;51.300;12.394;2023-02-28T04:16:31;0.60;99.90
25328;DHT22;13279;51.300;12.394;2023-02-28T04:18:59;0.60;99.90
25328;DHT22;13279;51.300;12.394;2023-02-28T04:21:30;0.60;99.90
25328;DHT22;13279;51.300;12.394;2023-02-28T04:23:58;0.60;99.90
25328;DHT22;13279;51.300;12.394;2023-02-28T04:26:29;0.60;99.90
25328;DHT22;13279;51.300;12.394;2023-02-28T04:28:57;0.60;99.90
25328;DHT22;13279;51.300;12.394;2023-02-28T04:31:24;0.60;99.90
25328;DHT22;13279;51.300;12.394;2023-02-28T04:33:52;0.60;99.90
25328;DHT22;13279;51.300;12.394;2023-02-28T04:36:19;0.60;99.90
25328;DHT22;13279;51.300;12.394;2023-02-28T04:38:48;0.60;99.90
25328;DHT22;13279;51.300;12.394;2023-02-28T04:41:16;0.60;99.90
25328;DHT22;13279;51.300;12.394;2023-02-28T04:43:45;0.60;99.90
25328;DHT22;13279;51.300;12.394;2023-02-28T04:46:12;0.60;99.90
25328;DHT22;13279;51.300;12.394;2023-02-28T04:48:40;0.60;99.90
25328;DHT22;13279;51.300;12.394;2023-02-28T04:51:11;0.60;99.90
25328;DHT22;13279;51.300;12.394;2023-02-28T04:53:40;0.60;99.90
25328;DHT22;13279;51.300;12.394;2023-02-28T04:56:09;0.60;99.90
25328;DHT22;13279;51.300;12.394;2023-02-28T04:58:37;0.60;99.90
25328;DHT22;13279;51.300;12.394;2023-02-28T05:01:15;0.60;99.90
25328;DHT22;13279;51.300;12.394;2023-02-28T05:03:43;0.60;99.90
25328;DHT22;13279;51.300;12.394;2023-02-28T05:06:12;0.50;99.90
25328;DHT22;13279;51.300;12.394;2023-02-28T05:08:41;0.50;99.90
25328;DHT22;13279;51.300;12.394;2023-02-28T05:11:15;0.50;99.90
25328;DHT22;13279;51.300;12.394;2023-02-28T05:13:42;0.50;99.90
25328;DHT22;13279;51.300;12.394;2023-02-28T05:16:11;0.60;99.90
25328;DHT22;13279;51.300;12.394;2023-02-28T05:18:39;0.50;99.90
25328;DHT22;13279;51.300;12.394;2023-02-28T05:21:12;0.50;99.90
25328;DHT22;13279;51.300;12.394;2023-02-28T05:23:45;0.50;99.90
25328;DHT22;13279;51.300;12.394;2023-02-28T05:26:12;0.50;99.90
25328;DHT22;13279;51.300;12.394;2023-02-28T05:28:40;0.50;99.90
25328;DHT22;13279;51.300;12.394;2023-02-28T05:31:08;0.50;99.90
25328;DHT22;13279;51.300;12.394;2023-02-28T05:33:37;0.50;99.90
25328;DHT22;13279;51.300;12.394;2023-02-28T05:36:06;0.50;99.90
25328;DHT22;13279;51.300;12.394;2023-02-28T05:38:34;0.50;99.90
25328;DHT22;13279;51.300;12.394;2023-02-28T05:41:05;0.50;99.90
25328;DHT22;13279;51.300;12.394;2023-02-28T05:43:33;0.50;99.90
25328;DHT22;13279;51.300;12.394;2023-02-28T05:46:02;0.40;99.90
25328;DHT22;13279;51.300;12.394;2023-02-28T05:48:31;0.40;99.90
25328;DHT22;13279;51.300;12.394;2023-02-28T05:50:59;0.40;99.90
25328;DHT22;13279;51.300;12.394;2023-02-28T05:53:27;0.40;99.90
25328;DHT22;13279;51.300;12.394;2023-02-28T05:55:55;0.40;99.90
25328;DHT22;13279;51.300;12.394;2023-02-28T05:58:23;0.40;99.90
25328;DHT22;13279;51.300;12.394;2023-02-28T06:00:51;0.30;99.90
25328;DHT22;13279;51.300;12.394;2023-02-28T06:03:19;0.30;99.90
25328;DHT22;13279;51.300;12.394;2023-02-28T06:05:46;0.30;99.90
25328;DHT22;13279;51.300;12.394;2023-02-28T06:08:15;0.30;99.90
25328;DHT22;13279;51.300;12.394;2023-02-28T06:10:42;0.30;99.90
25328;DHT22;13279;51.300;12.394;2023-02-28T06:13:10;0.30;99.90
25328;DHT22;13279;51.300;12.394;2023-02-28T06:15:38;0.30;99.90
25328;DHT22;13279;51.300;12.394;2023-02-28T06:18:06;0.20;99.90
25328;DHT22;13279;51.300;12.394;2023-02-28T06:20:33;0.20;99.90
25328;DHT22;13279;51.300;12.394;2023-02-28T06:23:02;0.20;99.90
25328;DHT22;13279;51.300;12.394;2023-02-28T06:25:31;0.10;99.90
25328;DHT22;13279;51.300;12.394;2023-02-28T06:27:58;0.10;99.90
25328;DHT22;13279;51.300;12.394;2023-02-28T06:30:26;0.10;99.90
25328;DHT22;13279;51.300;12.394;2023-02-28T06:32:57;0.10;99.90
25328;DHT22;13279;51.300;12.394;2023-02-28T06:35:24;0.10;99.90
25328;DHT22;13279;51.300;12.394;2023-02-28T06:37:52;0.00;99.90
25328;DHT22;13279;51.300;12.394;2023-02-28T06:40:20;0.00;99.90
25328;DHT22;13279;51.300;12.394;2023-02-28T06:42:49;0.00;99.90
25328;DHT22;13279;51.300;12.394;2023-02-28T06:45:16;0.00;99.90
25328;DHT22;13279;51.300;12.394;2023-02-28T06:47:44;0.00;99.90
25328;DHT22;13279;51.300;12.394;2023-02-28T06:50:12;0.00;99.90
25328;DHT22;13279;51.300;12.394;2023-02-28T06:52:39;0.00;99.90
25328;DHT22;13279;51.300;12.394;2023-02-28T06:55:08;0.00;99.90
25328;DHT22;13279;51.300;12.394;2023-02-28T06:57:36;0.00;99.90
25328;DHT22;13279;51.300;12.394;2023-02-28T07:00:06;0.00;99.90
25328;DHT22;13279;51.300;12.394;2023-02-28T07:02:34;0.00;99.90
25328;DHT22;13279;51.300;12.394;2023-02-28T07:05:02;0.10;99.90
25328;DHT22;13279;51.300;12.394;2023-02-28T07:07:29;0.10;99.90
25328;DHT22;13279;51.300;12.394;2023-02-28T07:09:58;0.10;99.90
25328;DHT22;13279;51.300;12.394;2023-02-28T07:12:25;0.10;99.90
25328;DHT22;13279;51.300;12.394;2023-02-28T07:14:52;0.20;99.90
25328;DHT22;13279;51.300;12.394;2023-02-28T07:17:21;0.20;99.90
25328;DHT22;13279;51.300;12.394;2023-02-28T07:19:49;0.20;99.90
25328;DHT22;13279;51.300;12.394;2023-02-28T07:22:16;0.30;99.90
25328;DHT22;13279;51.300;12.394;2023-02-28T07:24:44;0.50;99.90
25328;DHT22;13279;51.300;12.394;2023-02-28T07:27:11;0.60;99.90
25328;DHT22;13279;51.300;12.394;2023-02-28T07:29:51;0.80;99.90
25328;DHT22;13279;51.300;12.394;2023-02-28T07:32:20;0.90;99.90
25328;DHT22;13279;51.300;12.394;2023-02-28T07:34:48;1.00;99.90
25328;DHT22;13279;51.300;12.394;2023-02-28T07:37:15;1.10;99.90
25328;DHT22;13279;51.300;12.394;2023-02-28T07:39:42;1.10;99.90
25328;DHT22;13279;51.300;12.394;2023-02-28T07:42:09;1.20;99.90
25328;DHT22;13279;51.300;12.394;2023-02-28T07:44:38;1.20;99.90
25328;DHT22;13279;51.300;12.394;2023-02-28T07:47:07;1.40;99.90
25328;DHT22;13279;51.300;12.394;2023-02-28T07:49:37;1.40;99.90
25328;DHT22;13279;51.300;12.394;2023-02-28T07:52:05;1.50;99.90
25328;DHT22;13279;51.300;12.394;2023-02-28T07:54:33;1.70;99.90
25328;DHT22;13279;51.300;12.394;2023-02-28T07:57:01;1.80;99.90
25328;DHT22;13279;51.300;12.394;2023-02-28T07:59:29;2.00;99.90
25328;DHT22;13279;51.300;12.394;2023-02-28T08:01:57;1.90;99.90
25328;DHT22;13279;51.300;12.394;2023-02-28T08:04:25;2.00;99.90
25328;DHT22;13279;51.300;12.394;2023-02-28T08:06:55;2.20;99.90
25328;DHT22;13279;51.300;12.394;2023-02-28T08:09:23;2.40;99.90
25328;DHT22;13279;51.300;12.394;2023-02-28T08:11:51;2.50;99.90
25328;DHT22;13279;51.300;12.394;2023-02-28T08:14:18;2.50;99.90
25328;DHT22;13279;51.300;12.394;2023-02-28T08:16:45;2.70;99.90
25328;DHT22;13279;51.300;12.394;2023-02-28T08:19:13;2.90;99.90
25328;DHT22;13279;51.300;12.394;2023-02-28T08:21:40;3.00;99.90
25328;DHT22;13279;51.300;12.394;2023-02-28T08:24:09;3.20;99.90
25328;DHT22;13279;51.300;12.394;2023-02-28T08:26:37;3.30;99.90
25328;DHT22;13279;51.300;12.394;2023-02-28T08:29:07;3.20;99.90
25328;DHT22;13279;51.300;12.394;2023-02-28T08:31:34;3.20;99.90
25328;DHT22;13279;51.300;12.394;2023-02-28T08:34:05;3.40;99.90
25328;DHT22;13279;51.300;12.394;2023-02-28T08:36:32;3.50;99.90
25328;DHT22;13279;51.300;12.394;2023-02-28T08:39:00;3.60;99.90
25328;DHT22;13279;51.300;12.394;2023-02-28T08:41:30;3.80;99.90
25328;DHT22;13279;51.300;12.394;2023-02-28T08:43:58;3.70;99.90
25328;DHT22;13279;51.300;12.394;2023-02-28T08:46:26;3.80;99.90
25328;DHT22;13279;51.300;12.394;2023-02-28T08:48:55;3.80;99.90
25328;DHT22;13279;51.300;12.394;2023-02-28T08:51:26;3.70;99.90
25328;DHT22;13279;51.300;12.394;2023-02-28T08:53:54;3.80;99.90
25328;DHT22;13279;51.300;12.394;2023-02-28T08:56:22;3.80;99.90
25328;DHT22;13279;51.300;12.394;2023-02-28T08:58:51;3.90;99.90
25328;DHT22;13279;51.300;12.394;2023-02-28T09:01:23;4.10;99.90
25328;DHT22;13279;51.300;12.394;2023-02-28T09:03:51;4.00;99.90
25328;DHT22;13279;51.300;12.394;2023-02-28T09:06:20;4.20;99.90
25328;DHT22;13279;51.300;12.394;2023-02-28T09:08:47;4.40;99.90
25328;DHT22;13279;51.300;12.394;2023-02-28T09:11:36;4.60;99.90
25328;DHT22;13279;51.300;12.394;2023-02-28T09:14:06;4.60;99.90
25328;DHT22;13279;51.300;12.394;2023-02-28T09:16:35;4.60;99.90
25328;DHT22;13279;51.300;12.394;2023-02-28T09:19:02;4.70;99.90
25328;DHT22;13279;51.300;12.394;2023-02-28T09:21:30;4.60;99.90
25328;DHT22;13279;51.300;12.394;2023-02-28T09:23:57;4.50;99.90
25328;DHT22;13279;51.300;12.394;2023-02-28T09:26:26;4.40;99.90
25328;DHT22;13279;51.300;12.394;2023-02-28T09:28:54;4.50;99.90
25328;DHT22;13279;51.300;12.394;2023-02-28T09:31:25;4.60;99.90
25328;DHT22;13279;51.300;12.394;2023-02-28T09:33:56;4.70;99.90
25328;DHT22;13279;51.300;12.394;2023-02-28T09:36:24;5.00;99.90
25328;DHT22;13279;51.300;12.394;2023-02-28T09:38:52;5.10;99.90
25328;DHT22;13279;51.300;12.394;2023-02-28T09:41:21;5.20;99.90
25328;DHT22;13279;51.300;12.394;2023-02-28T09:43:52;4.80;99.90
25328;DHT22;13279;51.300;12.394;2023-02-28T09:46:28;4.90;99.90
25328;DHT22;13279;51.300;12.394;2023-02-28T09:48:59;5.00;99.90
25328;DHT22;13279;51.300;12.394;2023-02-28T09:51:33;5.20;99.90
25328;DHT22;13279;51.300;12.394;2023-02-28T09:54:03;5.20;99.90
25328;DHT22;13279;51.300;12.394;2023-02-28T09:56:36;5.10;99.90
25328;DHT22;13279;51.300;12.394;2023-02-28T09:59:13;5.30;99.90
25328;DHT22;13279;51.300;12.394;2023-02-28T10:01:50;5.20;99.90
25328;DHT22;13279;51.300;12.394;2023-02-28T10:04:38;4.80;99.90
25328;DHT22;13279;51.300;12.394;2023-02-28T10:07:17;4.50;99.90
25328;DHT22;13279;51.300;12.394;2023-02-28T10:09:48;4.20;99.90
25328;DHT22;13279;51.300;12.394;2023-02-28T10:12:20;4.40;99.90
25328;DHT22;13279;51.300;12.394;2023-02-28T10:14:50;4.80;99.90
25328;DHT22;13279;51.300;12.394;2023-02-28T10:17:23;5.20;99.90
25328;DHT22;13279;51.300;12.394;2023-02-28T10:19:58;5.70;99.90
25328;DHT22;13279;51.300;12.394;2023-02-28T10:22:31;6.00;99.90
25328;DHT22;13279;51.300;12.394;2023-02-28T10:25:04;6.30;99.90
25328;DHT22;13279;51.300;12.394;2023-02-28T10:27:38;6.20;99.90
25328;DHT22;13279;51.300;12.394;2023-02-28T10:30:09;6.20;99.90
25328;DHT22;13279;51.300;12.394;2023-02-28T10:32:38;6.30;99.90
25328;DHT22;13279;51.300;12.394;2023-02-28T10:35:15;6.50;99.90
25328;DHT22;13279;51.300;12.394;2023-02-28T10:37:45;6.50;99.90
25328;DHT22;13279;51.300;12.394;2023-02-28T10:40:28;6.70;99.90
25328;DHT22;13279;51.300;12.394;2023-02-28T10:42:58;6.40;99.90
25328;DHT22;13279;51.300;12.394;2023-02-28T10:45:28;6.00;99.90
25328;DHT22;13279;51.300;12.394;2023-02-28T10:48:02;6.20;99.90
25328;DHT22;13279;51.300;12.394;2023-02-28T10:50:35;5.80;99.90
25328;DHT22;13279;51.300;12.394;2023-02-28T10:53:16;5.50;99.90
25328;DHT22;13279;51.300;12.394;2023-02-28T10:55:44;5.30;99.90
25328;DHT22;13279;51.300;12.394;2023-02-28T10:58:21;5.30;99.90
25328;DHT22;13279;51.300;12.394;2023-02-28T11:00:50;5.60;99.90
25328;DHT22;13279;51.300;12.394;2023-02-28T11:03:30;6.10;99.90
25328;DHT22;13279;51.300;12.394;2023-02-28T11:05:58;6.10;99.90
25328;DHT22;13279;51.300;12.394;2023-02-28T11:08:31;6.20;99.90
25328;DHT22;13279;51.300;12.394;2023-02-28T11:11:04;6.10;99.90
25328;DHT22;13279;51.300;12.394;2023-02-28T11:13:34;6.20;99.90
25328;DHT22;13279;51.300;12.394;2023-02-28T11:16:04;6.40;99.90
25328;DHT22;13279;51.300;12.394;2023-02-28T11:18:40;6.30;99.90
25328;DHT22;13279;51.300;12.394;2023-02-28T11:21:15;6.50;99.90
25328;DHT22;13279;51.300;12.394;2023-02-28T11:23:44;6.80;99.90
25328;DHT22;13279;51.300;12.394;2023-02-28T11:26:11;6.80;99.90
25328;DHT22;13279;51.300;12.394;2023-02-28T11:28:40;6.80;99.90
25328;DHT22;13279;51.300;12.394;2023-02-28T11:31:17;6.50;99.90
25328;DHT22;13279;51.300;12.394;2023-02-28T11:33:51;6.30;99.90
25328;DHT22;13279;51.300;12.394;2023-02-28T11:36:21;6.40;99.90
25328;DHT22;13279;51.300;12.394;2023-02-28T11:38:51;6.60;99.90
25328;DHT22;13279;51.300;12.394;2023-02-28T11:41:41;6.60;99.90
25328;DHT22;13279;51.300;12.394;2023-02-28T11:44:25;6.80;99.90
25328;DHT22;13279;51.300;12.394;2023-02-28T11:46:59;6.80;99.90
25328;DHT22;13279;51.300;12.394;2023-02-28T11:49:38;6.90;99.90
25328;DHT22;13279;51.300;12.394;2023-02-28T11:52:20;6.90;99.90
25328;DHT22;13279;51.300;12.394;2023-02-28T11:55:01;6.80;99.90
25328;DHT22;13279;51.300;12.394;2023-02-28T11:57:42;6.80;99.90
25328;DHT22;13279;51.300;12.394;2023-02-28T12:00:32;6.40;99.90
25328;DHT22;13279;51.300;12.394;2023-02-28T12:03:12;6.10;99.90
25328;DHT22;13279;51.300;12.394;2023-02-28T12:05:45;6.00;99.90
25328;DHT22;13279;51.300;12.394;2023-02-28T12:08:26;6.20;99.90
25328;DHT22;13279;51.300;12.394;2023-02-28T12:11:07;5.90;99.90
25328;DHT22;13279;51.300;12.394;2023-02-28T12:13:48;5.70;99.90
25328;DHT22;13279;51.300;12.394;2023-02-28T12:16:34;5.60;99.90
25328;DHT22;13279;51.300;12.394;2023-02-28T12:19:16;5.90;99.90
25328;DHT22;13279;51.300;12.394;2023-02-28T12:22:03;5.70;99.90
25328;DHT22;13279;51.300;12.394;2023-02-28T12:24:47;5.50;99.90
25328;DHT22;13279;51.300;12.394;2023-02-28T12:27:20;5.90;99.90
25328;DHT22;13279;51.300;12.394;2023-02-28T12:29:51;6.10;99.90
25328;DHT22;13279;51.300;12.394;2023-02-28T12:32:25;6.20;99.90
25328;DHT22;13279;51.300;12.394;2023-02-28T12:34:57;6.00;99.90
25328;DHT22;13279;51.300;12.394;2023-02-28T12:37:36;6.10;99.90
25328;DHT22;13279;51.300;12.394;2023-02-28T12:40:09;6.40;99.90
25328;DHT22;13279;51.300;12.394;2023-02-28T12:42:41;6.80;99.90
25328;DHT22;13279;51.300;12.394;2023-02-28T12:45:13;7.00;99.90
25328;DHT22;13279;51.300;12.394;2023-02-28T12:47:46;7.20;99.90
25328;DHT22;13279;51.300;12.394;2023-02-28T12:50:16;7.00;99.90
25328;DHT22;13279;51.300;12.394;2023-02-28T12:52:53;6.90;99.90
25328;DHT22;13279;51.300;12.394;2023-02-28T12:55:29;6.80;99.90
25328;DHT22;13279;51.300;12.394;2023-02-28T12:58:07;6.50;99.90
25328;DHT22;13279;51.300;12.394;2023-02-28T13:00:46;6.50;99.90
25328;DHT22;13279;51.300;12.394;2023-02-28T13:09:09;6.70;99.90
25328;DHT22;13279;51.300;12.394;2023-02-28T13:11:41;7.00;99.90
25328;DHT22;13279;51.300;12.394;2023-02-28T13:14:34;6.90;99.90
25328;DHT22;13279;51.300;12.394;2023-02-28T13:17:10;7.00;99.90
25328;DHT22;13279;51.300;12.394;2023-02-28T13:19:41;6.90;99.90
25328;DHT22;13279;51.300;12.394;2023-02-28T13:22:18;7.20;99.90
25328;DHT22;13279;51.300;12.394;2023-02-28T13:24:48;7.00;99.90
25328;DHT22;13279;51.300;12.394;2023-02-28T13:27:33;6.70;99.90
25328;DHT22;13279;51.300;12.394;2023-02-28T13:30:02;6.50;99.90
25328;DHT22;13279;51.300;12.394;2023-02-28T13:33:21;6.70;99.90
25328;DHT22;13279;51.300;12.394;2023-02-28T13:38:50;7.30;99.90
25328;DHT22;13279;51.300;12.394;2023-02-28T13:41:48;7.70;99.90
25328;DHT22;13279;51.300;12.394;2023-02-28T13:44:19;7.60;99.90
25328;DHT22;13279;51.300;12.394;2023-02-28T13:47:22;7.50;99.90
25328;DHT22;13279;51.300;12.394;2023-02-28T13:49:51;7.80;99.90
25328;DHT22;13279;51.300;12.394;2023-02-28T13:52:22;8.40;99.90
25328;DHT22;13279;51.300;12.394;2023-02-28T13:55:15;8.90;99.90
25328;DHT22;13279;51.300;12.394;2023-02-28T13:58:07;8.70;99.90
25328;DHT22;13279;51.300;12.394;2023-02-28T14:00:57;8.80;99.90
25328;DHT22;13279;51.300;12.394;2023-02-28T14:03:40;8.70;99.90
25328;DHT22;13279;51.300;12.394;2023-02-28T14:06:18;8.90;99.90
25328;DHT22;13279;51.300;12.394;2023-02-28T14:08:54;8.70;99.90
25328;DHT22;13279;51.300;12.394;2023-02-28T14:11:26;8.80;99.90
25328;DHT22;13279;51.300;12.394;2023-02-28T14:13:56;8.50;99.90
25328;DHT22;13279;51.300;12.394;2023-02-28T14:16:25;9.00;99.90
25328;DHT22;13279;51.300;12.394;2023-02-28T14:18:58;9.30;99.90
25328;DHT22;13279;51.300;12.394;2023-02-28T14:21:30;9.60;99.90
25328;DHT22;13279;51.300;12.394;2023-02-28T14:24:25;9.00;99.90
25328;DHT22;13279;51.300;12.394;2023-02-28T14:27:06;8.80;99.90
25328;DHT22;13279;51.300;12.394;2023-02-28T14:30:07;9.20;99.90
25328;DHT22;13279;51.300;12.394;2023-02-28T14:32:44;9.40;99.90
25328;DHT22;13279;51.300;12.394;2023-02-28T14:35:22;9.60;99.90
25328;DHT22;13279;51.300;12.394;2023-02-28T14:37:55;9.60;99.90
25328;DHT22;13279;51.300;12.394;2023-02-28T14:40:27;9.60;99.90
25328;DHT22;13279;51.300;12.394;2023-02-28T14:42:56;9.50;99.90
25328;DHT22;13279;51.300;12.394;2023-02-28T14:45:28;9.40;99.90
25328;DHT22;13279;51.300;12.394;2023-02-28T14:47:57;9.00;99.90
25328;DHT22;13279;51.300;12.394;2023-02-28T14:50:29;8.80;99.90
25328;DHT22;13279;51.300;12.394;2023-02-28T14:52:57;8.60;99.90
25328;DHT22;13279;51.300;12.394;2023-02-28T14:55:28;8.60;99.90
25328;DHT22;13279;51.300;12.394;2023-02-28T14:57:58;8.80;99.90
25328;DHT22;13279;51.300;12.394;2023-02-28T15:00:31;8.20;99.90
25328;DHT22;13279;51.300;12.394;2023-02-28T15:03:01;8.60;99.90
25328;DHT22;13279;51.300;12.394;2023-02-28T15:05:51;9.10;99.90
25328;DHT22;13279;51.300;12.394;2023-02-28T15:08:19;9.10;99.90
25328;DHT22;13279;51.300;12.394;2023-02-28T15:10:52;9.00;99.90
25328;DHT22;13279;51.300;12.394;2023-02-28T15:13:21;8.90;99.90
25328;DHT22;13279;51.300;12.394;2023-02-28T15:15:53;8.80;99.90
25328;DHT22;13279;51.300;12.394;2023-02-28T15:18:30;8.60;99.90
25328;DHT22;13279;51.300;12.394;2023-02-28T15:21:01;9.00;99.90
25328;DHT22;13279;51.300;12.394;2023-02-28T15:23:30;9.50;99.90
25328;DHT22;13279;51.300;12.394;2023-02-28T15:25:59;10.40;99.90
25328;DHT22;13279;51.300;12.394;2023-02-28T15:28:28;10.20;99.90
25328;DHT22;13279;51.300;12.394;2023-02-28T15:30:59;10.10;99.90
25328;DHT22;13279;51.300;12.394;2023-02-28T15:33:28;9.60;99.90
25328;DHT22;13279;51.300;12.394;2023-02-28T15:36:10;9.70;99.90
25328;DHT22;13279;51.300;12.394;2023-02-28T15:38:39;10.20;99.90
25328;DHT22;13279;51.300;12.394;2023-02-28T15:41:23;10.00;99.90
25328;DHT22;13279;51.300;12.394;2023-02-28T15:44:24;9.90;99.90
25328;DHT22;13279;51.300;12.394;2023-02-28T15:47:03;10.00;99.90
25328;DHT22;13279;51.300;12.394;2023-02-28T15:49:39;9.90;99.90
25328;DHT22;13279;51.300;12.394;2023-02-28T15:52:13;9.20;99.90
25328;DHT22;13279;51.300;12.394;2023-02-28T15:54:44;8.90;99.90
25328;DHT22;13279;51.300;12.394;2023-02-28T15:57:15;8.40;99.90
25328;DHT22;13279;51.300;12.394;2023-02-28T15:59:51;8.60;99.90
25328;DHT22;13279;51.300;12.394;2023-02-28T16:02:37;8.40;99.90
25328;DHT22;13279;51.300;12.394;2023-02-28T16:05:21;8.60;99.90
25328;DHT22;13279;51.300;12.394;2023-02-28T16:07:54;8.50;99.90
25328;DHT22;13279;51.300;12.394;2023-02-28T16:10:30;8.40;99.90
25328;DHT22;13279;51.300;12.394;2023-02-28T16:13:12;8.60;99.90
25328;DHT22;13279;51.300;12.394;2023-02-28T16:15:43;8.40;99.90
25328;DHT22;13279;51.300;12.394;2023-02-28T16:18:12;7.80;99.90
25328;DHT22;13279;51.300;12.394;2023-02-28T16:20:40;7.10;99.90
25328;DHT22;13279;51.300;12.394;2023-02-28T16:23:10;6.60;99.90